sensor_id;sensor_type;location;lat;lon;timestamp;pressure;altitude;pressure_sealevel;temperature;humidity
83095;BME280;72967;43.674;6.976;2023-10-08T00:01:29;97591.47;;;18.06;61.41
83095;BME280;72967;43.674;6.976;2023-10-08T00:03:58;97591.78;;;18.01;61.58
83095;BME280;72967;43.674;6.976;2023-10-08T00:06:25;97573.28;;;17.86;61.46
83095;BME280;72967;43.674;6.976;2023-10-08T00:08:53;97601.00;;;18.05;61.64
83095;BME280;72967;43.674;6.976;2023-10-08T00:11:25;97592.75;;;18.12;61.01
83095;BME280;72967;43.674;6.976;2023-10-08T00:13:51;97594.28;;;18.09;61.07
83095;BME280;72967;43.674;6.976;2023-10-08T00:16:21;97585.53;;;18.07;60.90
83095;BME280;72967;43.674;6.976;2023-10-08T00:18:47;97586.28;;;18.04;61.11
83095;BME280;72967;43.674;6.976;2023-10-08T00:21:16;97594.03;;;18.18;60.69
83095;BME280;72967;43.674;6.976;2023-10-08T00:23:43;97588.16;;;18.23;60.40
83095;BME280;72967;43.674;6.976;2023-10-08T00:26:17;97590.16;;;18.26;60.39
83095;BME280;72967;43.674;6.976;2023-10-08T00:28:45;97589.03;;;18.31;60.25
83095;BME280;72967;43.674;6.976;2023-10-08T00:31:14;97571.53;;;18.30;59.87
83095;BME280;72967;43.674;6.976;2023-10-08T00:33:43;97575.16;;;18.34;59.91
83095;BME280;72967;43.674;6.976;2023-10-08T00:36:10;97577.16;;;18.34;59.64
83095;BME280;72967;43.674;6.976;2023-10-08T00:38:48;97574.84;;;18.39;59.80
83095;BME280;72967;43.674;6.976;2023-10-08T00:41:23;97547.97;;;18.24;59.97
83095;BME280;72967;43.674;6.976;2023-10-08T00:43:54;97576.41;;;18.37;59.94
83095;BME280;72967;43.674;6.976;2023-10-08T00:46:23;97566.50;;;18.39;59.83
83095;BME280;72967;43.674;6.976;2023-10-08T00:49:02;97560.06;;;18.35;60.01
83095;BME280;72967;43.674;6.976;2023-10-08T00:51:45;97564.41;;;18.33;60.28
83095;BME280;72967;43.674;6.976;2023-10-08T00:54:24;97556.06;;;18.33;59.99
83095;BME280;72967;43.674;6.976;2023-10-08T00:56:50;97552.09;;;18.34;60.06
83095;BME280;72967;43.674;6.976;2023-10-08T00:59:23;97546.88;;;18.29;60.18
83095;BME280;72967;43.674;6.976;2023-10-08T01:01:50;97541.63;;;18.23;60.08
83095;BME280;72967;43.674;6.976;2023-10-08T01:04:30;97547.13;;;18.20;60.60
83095;BME280;72967;43.674;6.976;2023-10-08T01:06:59;97542.69;;;18.15;60.32
83095;BME280;72967;43.674;6.976;2023-10-08T01:09:37;97541.06;;;18.11;60.53
83095;BME280;72967;43.674;6.976;2023-10-08T01:12:15;97533.06;;;18.09;60.57
83095;BME280;72967;43.674;6.976;2023-10-08T01:14:45;97529.97;;;18.14;60.43
83095;BME280;72967;43.674;6.976;2023-10-08T01:17:13;97516.34;;;18.06;60.46
83095;BME280;72967;43.674;6.976;2023-10-08T01:19:41;97534.78;;;18.17;60.47
83095;BME280;72967;43.674;6.976;2023-10-08T01:22:13;97536.81;;;18.20;60.40
83095;BME280;72967;43.674;6.976;2023-10-08T01:24:44;97519.69;;;18.18;60.36
83095;BME280;72967;43.674;6.976;2023-10-08T01:27:13;97522.03;;;18.16;60.33
83095;BME280;72967;43.674;6.976;2023-10-08T01:29:45;97530.34;;;18.13;60.64
83095;BME280;72967;43.674;6.976;2023-10-08T01:32:11;97519.88;;;18.03;61.06
83095;BME280;72967;43.674;6.976;2023-10-08T01:34:41;97525.81;;;18.01;61.70
83095;BME280;72967;43.674;6.976;2023-10-08T01:37:13;97523.38;;;17.96;62.05
83095;BME280;72967;43.674;6.976;2023-10-08T01:39:39;97522.13;;;17.94;62.42
83095;BME280;72967;43.674;6.976;2023-10-08T01:42:08;97510.59;;;17.92;62.67
83095;BME280;72967;43.674;6.976;2023-10-08T01:44:43;97508.97;;;17.91;62.74
83095;BME280;72967;43.674;6.976;2023-10-08T01:47:11;97521.72;;;17.92;62.94
83095;BME280;72967;43.674;6.976;2023-10-08T01:49:37;97504.53;;;17.86;63.27
83095;BME280;72967;43.674;6.976;2023-10-08T01:52:04;97500.50;;;17.83;62.97
83095;BME280;72967;43.674;6.976;2023-10-08T01:54:33;97498.22;;;17.89;62.86
83095;BME280;72967;43.674;6.976;2023-10-08T01:57:01;97483.03;;;17.83;62.75
83095;BME280;72967;43.674;6.976;2023-10-08T01:59:26;97509.00;;;17.94;62.94
83095;BME280;72967;43.674;6.976;2023-10-08T02:01:52;97507.41;;;17.93;62.78
83095;BME280;72967;43.674;6.976;2023-10-08T02:04:21;97504.28;;;17.98;61.46
83095;BME280;72967;43.674;6.976;2023-10-08T02:06:46;97503.91;;;18.00;61.38
83095;BME280;72967;43.674;6.976;2023-10-08T02:09:12;97499.19;;;18.04;61.00
83095;BME280;72967;43.674;6.976;2023-10-08T02:11:47;97496.38;;;18.00;60.88
83095;BME280;72967;43.674;6.976;2023-10-08T02:14:19;97506.34;;;18.01;61.20
83095;BME280;72967;43.674;6.976;2023-10-08T02:16:46;97494.03;;;18.02;60.77
83095;BME280;72967;43.674;6.976;2023-10-08T02:19:12;97489.16;;;17.96;61.01
83095;BME280;72967;43.674;6.976;2023-10-08T02:21:39;97490.34;;;17.95;61.12
83095;BME280;72967;43.674;6.976;2023-10-08T02:24:08;97489.13;;;17.92;61.46
83095;BME280;72967;43.674;6.976;2023-10-08T02:26:36;97489.50;;;17.91;61.62
83095;BME280;72967;43.674;6.976;2023-10-08T02:29:01;97482.31;;;17.90;61.58
83095;BME280;72967;43.674;6.976;2023-10-08T02:31:27;97485.59;;;17.95;61.57
83095;BME280;72967;43.674;6.976;2023-10-08T02:33:53;97479.59;;;17.93;61.81
83095;BME280;72967;43.674;6.976;2023-10-08T02:36:19;97472.38;;;17.89;61.73
83095;BME280;72967;43.674;6.976;2023-10-08T02:38:45;97476.88;;;17.97;61.16
83095;BME280;72967;43.674;6.976;2023-10-08T02:41:16;97478.59;;;18.08;61.03
83095;BME280;72967;43.674;6.976;2023-10-08T02:43:42;97474.13;;;18.00;61.17
83095;BME280;72967;43.674;6.976;2023-10-08T02:46:07;97478.91;;;18.03;61.26
83095;BME280;72967;43.674;6.976;2023-10-08T02:48:35;97476.47;;;17.98;61.28
83095;BME280;72967;43.674;6.976;2023-10-08T02:51:01;97482.50;;;18.04;60.92
83095;BME280;72967;43.674;6.976;2023-10-08T02:53:38;97481.28;;;18.01;60.73
83095;BME280;72967;43.674;6.976;2023-10-08T02:56:06;97480.50;;;18.01;61.02
83095;BME280;72967;43.674;6.976;2023-10-08T02:58:38;97487.19;;;17.96;61.23
83095;BME280;72967;43.674;6.976;2023-10-08T03:01:04;97482.38;;;17.93;61.42
83095;BME280;72967;43.674;6.976;2023-10-08T03:03:30;97483.94;;;17.91;61.78
83095;BME280;72967;43.674;6.976;2023-10-08T03:05:58;97482.28;;;17.86;61.84
83095;BME280;72967;43.674;6.976;2023-10-08T03:08:23;97466.25;;;17.76;62.04
83095;BME280;72967;43.674;6.976;2023-10-08T03:10:50;97482.22;;;17.82;62.13
83095;BME280;72967;43.674;6.976;2023-10-08T03:13:21;97483.81;;;17.83;62.08
83095;BME280;72967;43.674;6.976;2023-10-08T03:15:47;97472.50;;;17.69;62.06
83095;BME280;72967;43.674;6.976;2023-10-08T03:18:32;97480.16;;;17.76;62.12
83095;BME280;72967;43.674;6.976;2023-10-08T03:21:07;97493.00;;;17.88;61.48
83095;BME280;72967;43.674;6.976;2023-10-08T03:23:56;97486.69;;;17.87;61.49
83095;BME280;72967;43.674;6.976;2023-10-08T03:26:23;97490.34;;;17.95;60.89
83095;BME280;72967;43.674;6.976;2023-10-08T03:29:03;97492.47;;;18.05;60.13
83095;BME280;72967;43.674;6.976;2023-10-08T03:31:41;97489.66;;;18.01;60.36
83095;BME280;72967;43.674;6.976;2023-10-08T03:34:16;97495.69;;;18.07;60.31
83095;BME280;72967;43.674;6.976;2023-10-08T03:36:44;97496.81;;;18.02;60.81
83095;BME280;72967;43.674;6.976;2023-10-08T03:39:13;97504.28;;;17.98;60.60
83095;BME280;72967;43.674;6.976;2023-10-08T03:41:42;97506.38;;;18.05;59.42
83095;BME280;72967;43.674;6.976;2023-10-08T03:44:08;97500.97;;;18.15;58.13
83095;BME280;72967;43.674;6.976;2023-10-08T03:46:42;97510.16;;;18.19;58.22
83095;BME280;72967;43.674;6.976;2023-10-08T03:49:14;97520.09;;;18.20;58.44
83095;BME280;72967;43.674;6.976;2023-10-08T03:52:00;97517.91;;;18.33;56.79
83095;BME280;72967;43.674;6.976;2023-10-08T03:54:25;97510.47;;;18.44;56.38
83095;BME280;72967;43.674;6.976;2023-10-08T03:57:01;97504.84;;;18.41;56.54
83095;BME280;72967;43.674;6.976;2023-10-08T03:59:29;97500.84;;;18.38;56.59
83095;BME280;72967;43.674;6.976;2023-10-08T04:02:00;97508.06;;;18.43;55.62
83095;BME280;72967;43.674;6.976;2023-10-08T04:04:43;97511.22;;;18.41;55.44
83095;BME280;72967;43.674;6.976;2023-10-08T04:07:23;97514.78;;;18.38;55.82
83095;BME280;72967;43.674;6.976;2023-10-08T04:09:59;97516.28;;;18.32;56.31
83095;BME280;72967;43.674;6.976;2023-10-08T04:12:34;97505.00;;;18.21;56.75
83095;BME280;72967;43.674;6.976;2023-10-08T04:15:03;97505.84;;;18.25;56.48
83095;BME280;72967;43.674;6.976;2023-10-08T04:17:35;97519.72;;;18.22;56.84
83095;BME280;72967;43.674;6.976;2023-10-08T04:20:12;97494.44;;;18.04;56.99
83095;BME280;72967;43.674;6.976;2023-10-08T04:22:57;97516.03;;;18.14;57.19
83095;BME280;72967;43.674;6.976;2023-10-08T04:25:26;97515.97;;;18.07;57.51
83095;BME280;72967;43.674;6.976;2023-10-08T04:27:54;97509.97;;;18.05;57.31
83095;BME280;72967;43.674;6.976;2023-10-08T04:30:19;97490.44;;;18.02;56.94
83095;BME280;72967;43.674;6.976;2023-10-08T04:32:47;97503.19;;;18.03;57.25
83095;BME280;72967;43.674;6.976;2023-10-08T04:35:12;97506.13;;;18.13;56.89
83095;BME280;72967;43.674;6.976;2023-10-08T04:37:40;97505.03;;;18.25;56.71
83095;BME280;72967;43.674;6.976;2023-10-08T04:40:07;97497.16;;;18.31;55.69
83095;BME280;72967;43.674;6.976;2023-10-08T04:42:41;97475.66;;;18.27;54.64
83095;BME280;72967;43.674;6.976;2023-10-08T04:45:10;97496.13;;;18.42;54.64
83095;BME280;72967;43.674;6.976;2023-10-08T04:47:39;97502.91;;;18.45;53.97
83095;BME280;72967;43.674;6.976;2023-10-08T04:50:08;97507.59;;;18.37;54.12
83095;BME280;72967;43.674;6.976;2023-10-08T04:52:40;97505.16;;;18.32;54.86
83095;BME280;72967;43.674;6.976;2023-10-08T04:55:11;97502.22;;;18.21;55.00
83095;BME280;72967;43.674;6.976;2023-10-08T04:57:45;97503.34;;;18.13;55.48
83095;BME280;72967;43.674;6.976;2023-10-08T05:00:11;97512.78;;;18.09;55.20
83095;BME280;72967;43.674;6.976;2023-10-08T05:02:40;97511.53;;;18.03;55.25
83095;BME280;72967;43.674;6.976;2023-10-08T05:05:15;97513.13;;;18.04;54.36
83095;BME280;72967;43.674;6.976;2023-10-08T05:07:40;97512.22;;;17.96;54.43
83095;BME280;72967;43.674;6.976;2023-10-08T05:10:13;97519.13;;;18.06;55.06
83095;BME280;72967;43.674;6.976;2023-10-08T05:12:44;97505.97;;;18.03;54.97
83095;BME280;72967;43.674;6.976;2023-10-08T05:15:31;97524.78;;;18.13;54.73
83095;BME280;72967;43.674;6.976;2023-10-08T05:18:07;97511.09;;;18.01;54.69
83095;BME280;72967;43.674;6.976;2023-10-08T05:20:59;97517.00;;;17.96;54.70
83095;BME280;72967;43.674;6.976;2023-10-08T05:23:27;97521.28;;;17.90;55.07
83095;BME280;72967;43.674;6.976;2023-10-08T05:25:54;97521.28;;;17.90;55.49
83095;BME280;72967;43.674;6.976;2023-10-08T05:28:40;97519.25;;;17.87;55.78
83095;BME280;72967;43.674;6.976;2023-10-08T05:31:26;97523.63;;;17.88;55.46
83095;BME280;72967;43.674;6.976;2023-10-08T05:34:06;97521.38;;;17.97;53.88
83095;BME280;72967;43.674;6.976;2023-10-08T05:36:48;97516.28;;;18.02;53.99
83095;BME280;72967;43.674;6.976;2023-10-08T05:39:39;97519.63;;;18.15;53.54
83095;BME280;72967;43.674;6.976;2023-10-08T05:42:05;97522.09;;;18.20;52.68
83095;BME280;72967;43.674;6.976;2023-10-08T05:44:46;97520.53;;;18.22;52.04
83095;BME280;72967;43.674;6.976;2023-10-08T05:47:16;97534.06;;;18.24;50.96
83095;BME280;72967;43.674;6.976;2023-10-08T05:49:41;97532.47;;;18.23;50.77
83095;BME280;72967;43.674;6.976;2023-10-08T05:52:20;97528.88;;;18.22;50.86
83095;BME280;72967;43.674;6.976;2023-10-08T05:54:56;97529.28;;;18.24;50.33
83095;BME280;72967;43.674;6.976;2023-10-08T05:57:46;97528.63;;;18.35;49.25
83095;BME280;72967;43.674;6.976;2023-10-08T06:00:17;97537.19;;;18.49;48.68
83095;BME280;72967;43.674;6.976;2023-10-08T06:02:46;97530.41;;;18.50;48.74
83095;BME280;72967;43.674;6.976;2023-10-08T06:05:12;97535.66;;;18.55;49.14
83095;BME280;72967;43.674;6.976;2023-10-08T06:07:38;97534.09;;;18.54;50.32
83095;BME280;72967;43.674;6.976;2023-10-08T06:10:29;97552.97;;;18.71;50.84
83095;BME280;72967;43.674;6.976;2023-10-08T06:15:49;97551.56;;;18.84;50.44
83095;BME280;72967;43.674;6.976;2023-10-08T06:18:15;97556.78;;;18.89;50.76
83095;BME280;72967;43.674;6.976;2023-10-08T06:20:43;97559.59;;;18.93;50.29
83095;BME280;72967;43.674;6.976;2023-10-08T06:23:12;97557.25;;;18.95;50.08
83095;BME280;72967;43.674;6.976;2023-10-08T06:25:42;97550.06;;;18.94;50.28
83095;BME280;72967;43.674;6.976;2023-10-08T06:28:15;97555.19;;;18.92;50.36
83095;BME280;72967;43.674;6.976;2023-10-08T06:30:44;97509.88;;;18.58;50.85
83095;BME280;72967;43.674;6.976;2023-10-08T06:33:10;97553.56;;;18.87;51.06
83095;BME280;72967;43.674;6.976;2023-10-08T06:35:35;97565.53;;;18.91;51.83
83095;BME280;72967;43.674;6.976;2023-10-08T06:38:02;97562.72;;;18.88;52.68
83095;BME280;72967;43.674;6.976;2023-10-08T06:40:40;97579.91;;;18.93;52.35
83095;BME280;72967;43.674;6.976;2023-10-08T06:43:06;97574.78;;;18.99;51.22
83095;BME280;72967;43.674;6.976;2023-10-08T06:45:43;97577.25;;;19.04;50.07
83095;BME280;72967;43.674;6.976;2023-10-08T06:48:10;97576.91;;;19.09;49.49
83095;BME280;72967;43.674;6.976;2023-10-08T06:50:43;97582.91;;;19.11;48.31
83095;BME280;72967;43.674;6.976;2023-10-08T06:53:10;97577.72;;;19.13;48.81
83095;BME280;72967;43.674;6.976;2023-10-08T06:55:39;97588.59;;;19.22;48.03
83095;BME280;72967;43.674;6.976;2023-10-08T06:58:05;97588.25;;;19.30;47.57
83095;BME280;72967;43.674;6.976;2023-10-08T07:00:33;97587.53;;;19.37;47.70
83095;BME280;72967;43.674;6.976;2023-10-08T07:03:04;97591.66;;;19.46;47.48
83095;BME280;72967;43.674;6.976;2023-10-08T07:05:29;97592.91;;;19.56;46.91
83095;BME280;72967;43.674;6.976;2023-10-08T07:08:02;97596.97;;;19.62;47.45
83095;BME280;72967;43.674;6.976;2023-10-08T07:10:34;97607.00;;;19.70;46.71
83095;BME280;72967;43.674;6.976;2023-10-08T07:13:00;97604.25;;;19.74;46.99
83095;BME280;72967;43.674;6.976;2023-10-08T07:15:28;97605.88;;;19.78;45.79
83095;BME280;72967;43.674;6.976;2023-10-08T07:17:56;97609.88;;;19.84;44.80
83095;BME280;72967;43.674;6.976;2023-10-08T07:20:21;97608.78;;;19.92;44.37
83095;BME280;72967;43.674;6.976;2023-10-08T07:22:48;97606.81;;;19.97;44.95
83095;BME280;72967;43.674;6.976;2023-10-08T07:25:21;97599.22;;;19.97;45.10
83095;BME280;72967;43.674;6.976;2023-10-08T07:27:47;97617.63;;;20.05;46.37
83095;BME280;72967;43.674;6.976;2023-10-08T07:30:13;97614.06;;;20.05;45.66
83095;BME280;72967;43.674;6.976;2023-10-08T07:32:41;97621.66;;;20.11;44.65
83095;BME280;72967;43.674;6.976;2023-10-08T07:35:07;97615.72;;;20.16;45.17
83095;BME280;72967;43.674;6.976;2023-10-08T07:37:44;97618.13;;;20.21;45.25
83095;BME280;72967;43.674;6.976;2023-10-08T07:40:10;97604.97;;;20.15;46.35
83095;BME280;72967;43.674;6.976;2023-10-08T07:42:37;97621.38;;;20.27;46.38
83095;BME280;72967;43.674;6.976;2023-10-08T07:45:03;97629.03;;;20.33;45.60
83095;BME280;72967;43.674;6.976;2023-10-08T07:47:30;97623.50;;;20.41;45.29
83095;BME280;72967;43.674;6.976;2023-10-08T07:49:55;97627.53;;;20.50;45.57
83095;BME280;72967;43.674;6.976;2023-10-08T07:52:21;97619.22;;;20.64;45.27
83095;BME280;72967;43.674;6.976;2023-10-08T07:54:46;97620.47;;;20.67;45.18
83095;BME280;72967;43.674;6.976;2023-10-08T07:57:13;97621.75;;;20.87;44.21
83095;BME280;72967;43.674;6.976;2023-10-08T07:59:43;97632.16;;;20.97;46.35
83095;BME280;72967;43.674;6.976;2023-10-08T08:02:23;97627.81;;;21.07;47.00
83095;BME280;72967;43.674;6.976;2023-10-08T08:04:53;97619.84;;;21.12;46.65
83095;BME280;72967;43.674;6.976;2023-10-08T08:07:19;97626.69;;;21.22;45.64
83095;BME280;72967;43.674;6.976;2023-10-08T08:09:46;97612.31;;;21.31;44.74
83095;BME280;72967;43.674;6.976;2023-10-08T08:12:25;97621.16;;;21.40;43.85
83095;BME280;72967;43.674;6.976;2023-10-08T08:14:51;97623.94;;;21.47;45.63
83095;BME280;72967;43.674;6.976;2023-10-08T08:17:18;97615.53;;;21.50;45.51
83095;BME280;72967;43.674;6.976;2023-10-08T08:19:46;97630.75;;;21.56;48.45
83095;BME280;72967;43.674;6.976;2023-10-08T08:22:19;97620.78;;;21.59;49.71
83095;BME280;72967;43.674;6.976;2023-10-08T08:24:49;97622.38;;;21.63;50.94
83095;BME280;72967;43.674;6.976;2023-10-08T08:27:20;97615.16;;;21.66;51.05
83095;BME280;72967;43.674;6.976;2023-10-08T08:29:51;97626.38;;;21.77;51.00
83095;BME280;72967;43.674;6.976;2023-10-08T08:32:21;97633.16;;;21.83;51.13
83095;BME280;72967;43.674;6.976;2023-10-08T08:34:47;97639.16;;;21.92;51.65
83095;BME280;72967;43.674;6.976;2023-10-08T08:37:16;97639.97;;;21.92;51.54
83095;BME280;72967;43.674;6.976;2023-10-08T08:39:42;97629.22;;;21.94;51.72
83095;BME280;72967;43.674;6.976;2023-10-08T08:42:08;97638.44;;;22.02;51.30
83095;BME280;72967;43.674;6.976;2023-10-08T08:44:37;97632.41;;;22.11;51.04
83095;BME280;72967;43.674;6.976;2023-10-08T08:47:09;97636.41;;;22.17;51.08
83095;BME280;72967;43.674;6.976;2023-10-08T08:49:40;97632.41;;;22.21;50.64
83095;BME280;72967;43.674;6.976;2023-10-08T08:52:07;97636.41;;;22.24;50.94
83095;BME280;72967;43.674;6.976;2023-10-08T08:54:32;97630.00;;;22.23;51.50
83095;BME280;72967;43.674;6.976;2023-10-08T08:57:00;97629.19;;;22.30;50.73
83095;BME280;72967;43.674;6.976;2023-10-08T08:59:30;97635.19;;;22.35;51.09
83095;BME280;72967;43.674;6.976;2023-10-08T09:02:00;97625.97;;;22.42;51.46
83095;BME280;72967;43.674;6.976;2023-10-08T09:04:32;97637.94;;;22.50;52.00
83095;BME280;72967;43.674;6.976;2023-10-08T09:07:01;97625.13;;;22.56;51.59
83095;BME280;72967;43.674;6.976;2023-10-08T09:09:35;97615.13;;;22.55;52.12
83095;BME280;72967;43.674;6.976;2023-10-08T09:12:05;97621.91;;;22.61;51.96
83095;BME280;72967;43.674;6.976;2023-10-08T09:14:33;97629.94;;;22.73;52.19
83095;BME280;72967;43.674;6.976;2023-10-08T09:17:00;97627.91;;;22.77;51.71
83095;BME280;72967;43.674;6.976;2023-10-08T09:19:26;97640.28;;;22.86;51.50
83095;BME280;72967;43.674;6.976;2023-10-08T09:22:08;97635.06;;;22.85;50.72
83095;BME280;72967;43.674;6.976;2023-10-08T09:24:37;97636.69;;;22.90;50.30
83095;BME280;72967;43.674;6.976;2023-10-08T09:27:10;97637.44;;;22.97;49.42
83095;BME280;72967;43.674;6.976;2023-10-08T09:29:40;97636.22;;;23.02;48.00
83095;BME280;72967;43.674;6.976;2023-10-08T09:32:08;97628.22;;;23.04;48.37
83095;BME280;72967;43.674;6.976;2023-10-08T09:34:34;97633.00;;;23.07;47.69
83095;BME280;72967;43.674;6.976;2023-10-08T09:37:00;97628.56;;;23.13;46.95
83095;BME280;72967;43.674;6.976;2023-10-08T09:39:27;97621.38;;;23.08;46.82
83095;BME280;72967;43.674;6.976;2023-10-08T09:41:56;97628.13;;;23.18;46.42
83095;BME280;72967;43.674;6.976;2023-10-08T09:44:23;97623.31;;;23.18;47.34
83095;BME280;72967;43.674;6.976;2023-10-08T09:47:05;97626.50;;;23.24;47.21
83095;BME280;72967;43.674;6.976;2023-10-08T09:49:41;97628.06;;;23.32;47.46
83095;BME280;72967;43.674;6.976;2023-10-08T09:52:10;97628.78;;;23.43;46.70
83095;BME280;72967;43.674;6.976;2023-10-08T09:54:43;97632.41;;;23.51;46.46
83095;BME280;72967;43.674;6.976;2023-10-08T09:57:10;97626.31;;;23.59;46.07
83095;BME280;72967;43.674;6.976;2023-10-08T09:59:36;97627.88;;;23.67;46.62
83095;BME280;72967;43.674;6.976;2023-10-08T10:02:06;97623.03;;;23.68;46.75
83095;BME280;72967;43.674;6.976;2023-10-08T10:04:35;97625.41;;;23.73;47.25
83095;BME280;72967;43.674;6.976;2023-10-08T10:07:11;97627.44;;;23.73;46.53
83095;BME280;72967;43.674;6.976;2023-10-08T10:09:38;97631.41;;;23.79;46.79
83095;BME280;72967;43.674;6.976;2023-10-08T10:12:10;97615.81;;;23.70;47.05
83095;BME280;72967;43.674;6.976;2023-10-08T10:14:45;97624.53;;;23.87;46.50
83095;BME280;72967;43.674;6.976;2023-10-08T10:17:27;97625.66;;;23.96;46.04
83095;BME280;72967;43.674;6.976;2023-10-08T10:19:54;97626.00;;;24.02;46.39
83095;BME280;72967;43.674;6.976;2023-10-08T10:22:28;97623.97;;;24.06;45.85
83095;BME280;72967;43.674;6.976;2023-10-08T10:24:54;97611.91;;;24.05;45.58
83095;BME280;72967;43.674;6.976;2023-10-08T10:27:21;97618.69;;;24.11;45.53
83095;BME280;72967;43.674;6.976;2023-10-08T10:29:47;97585.97;;;23.91;45.66
83095;BME280;72967;43.674;6.976;2023-10-08T10:32:14;97617.44;;;24.23;45.01
83095;BME280;72967;43.674;6.976;2023-10-08T10:34:44;97617.72;;;24.32;44.70
83095;BME280;72967;43.674;6.976;2023-10-08T10:37:10;97608.09;;;24.33;44.79
83095;BME280;72967;43.674;6.976;2023-10-08T10:40:10;97622.91;;;24.37;43.95
83095;BME280;72967;43.674;6.976;2023-10-08T10:42:39;97606.03;;;24.37;43.42
83095;BME280;72967;43.674;6.976;2023-10-08T10:45:15;97606.44;;;24.36;43.54
83095;BME280;72967;43.674;6.976;2023-10-08T10:47:59;97601.16;;;24.45;42.70
83095;BME280;72967;43.674;6.976;2023-10-08T10:50:40;97597.38;;;24.59;42.79
83095;BME280;72967;43.674;6.976;2023-10-08T10:53:26;97603.28;;;24.68;43.31
83095;BME280;72967;43.674;6.976;2023-10-08T10:55:53;97600.81;;;24.73;42.50
83095;BME280;72967;43.674;6.976;2023-10-08T10:58:34;97602.34;;;24.81;42.99
83095;BME280;72967;43.674;6.976;2023-10-08T11:01:05;97603.50;;;24.84;43.21
83095;BME280;72967;43.674;6.976;2023-10-08T11:03:50;97595.13;;;24.80;43.43
83095;BME280;72967;43.674;6.976;2023-10-08T11:06:21;97590.63;;;24.90;42.97
83095;BME280;72967;43.674;6.976;2023-10-08T11:08:53;97586.53;;;24.94;43.06
83095;BME280;72967;43.674;6.976;2023-10-08T11:11:25;97592.22;;;24.91;42.95
83095;BME280;72967;43.674;6.976;2023-10-08T11:13:59;97584.19;;;24.89;43.25
83095;BME280;72967;43.674;6.976;2023-10-08T11:16:28;97587.38;;;24.91;43.13
83095;BME280;72967;43.674;6.976;2023-10-08T11:18:56;97588.13;;;24.95;43.16
83095;BME280;72967;43.674;6.976;2023-10-08T11:21:25;97584.09;;;24.96;43.36
83095;BME280;72967;43.674;6.976;2023-10-08T11:23:56;97581.63;;;25.02;43.49
83095;BME280;72967;43.674;6.976;2023-10-08T11:26:25;97574.13;;;24.92;43.50
83095;BME280;72967;43.674;6.976;2023-10-08T11:29:01;97583.66;;;24.98;43.55
83095;BME280;72967;43.674;6.976;2023-10-08T11:31:28;97578.94;;;24.91;43.92
83095;BME280;72967;43.674;6.976;2023-10-08T11:33:59;97574.13;;;24.92;44.53
83095;BME280;72967;43.674;6.976;2023-10-08T11:36:27;97569.19;;;25.00;44.33
83095;BME280;72967;43.674;6.976;2023-10-08T11:38:57;97572.28;;;25.09;44.00
83095;BME280;72967;43.674;6.976;2023-10-08T11:41:32;97570.59;;;25.15;44.01
83095;BME280;72967;43.674;6.976;2023-10-08T11:44:09;97568.94;;;25.17;44.38
83095;BME280;72967;43.674;6.976;2023-10-08T11:46:38;97558.38;;;25.25;44.24
83095;BME280;72967;43.674;6.976;2023-10-08T11:49:07;97552.31;;;25.26;44.48
83095;BME280;72967;43.674;6.976;2023-10-08T11:51:43;97551.94;;;25.24;44.32
83095;BME280;72967;43.674;6.976;2023-10-08T11:54:08;97548.31;;;25.24;44.90
83095;BME280;72967;43.674;6.976;2023-10-08T11:56:37;97558.44;;;25.21;44.87
83095;BME280;72967;43.674;6.976;2023-10-08T11:59:04;97546.38;;;25.21;45.00
83095;BME280;72967;43.674;6.976;2023-10-08T12:01:38;97556.34;;;25.25;45.24
83095;BME280;72967;43.674;6.976;2023-10-08T12:04:08;97543.41;;;25.31;45.14
83095;BME280;72967;43.674;6.976;2023-10-08T12:06:42;97539.25;;;25.39;45.12
83095;BME280;72967;43.674;6.976;2023-10-08T12:09:17;97530.69;;;25.47;44.86
83095;BME280;72967;43.674;6.976;2023-10-08T12:11:44;97529.34;;;25.55;43.62
83095;BME280;72967;43.674;6.976;2023-10-08T12:14:09;97535.44;;;25.53;44.11
83095;BME280;72967;43.674;6.976;2023-10-08T12:16:36;97525.38;;;25.52;43.48
83095;BME280;72967;43.674;6.976;2023-10-08T12:19:02;97532.91;;;25.62;43.40
83095;BME280;72967;43.674;6.976;2023-10-08T12:21:41;97534.53;;;25.60;43.61
83095;BME280;72967;43.674;6.976;2023-10-08T12:24:06;97519.75;;;25.52;43.24
83095;BME280;72967;43.674;6.976;2023-10-08T12:26:35;97517.41;;;25.47;42.46
83095;BME280;72967;43.674;6.976;2023-10-08T12:29:01;97517.84;;;25.46;42.68
83095;BME280;72967;43.674;6.976;2023-10-08T12:31:27;97521.38;;;25.50;42.28
83095;BME280;72967;43.674;6.976;2023-10-08T12:33:54;97520.56;;;25.53;41.90
83095;BME280;72967;43.674;6.976;2023-10-08T12:36:25;97516.47;;;25.57;40.68
83095;BME280;72967;43.674;6.976;2023-10-08T12:38:52;97522.34;;;25.66;40.15
83095;BME280;72967;43.674;6.976;2023-10-08T12:41:27;97517.44;;;25.70;40.98
83095;BME280;72967;43.674;6.976;2023-10-08T12:43:53;97517.41;;;25.74;41.34
83095;BME280;72967;43.674;6.976;2023-10-08T12:46:20;97512.50;;;25.78;41.48
83095;BME280;72967;43.674;6.976;2023-10-08T12:48:50;97507.25;;;25.80;40.77
83095;BME280;72967;43.674;6.976;2023-10-08T12:51:23;97504.84;;;25.78;41.52
83095;BME280;72967;43.674;6.976;2023-10-08T12:53:50;97501.25;;;25.78;40.78
83095;BME280;72967;43.674;6.976;2023-10-08T12:56:23;97506.31;;;25.87;41.93
83095;BME280;72967;43.674;6.976;2023-10-08T12:58:57;97506.28;;;25.90;41.51
83095;BME280;72967;43.674;6.976;2023-10-08T13:01:23;97509.38;;;25.96;41.73
83095;BME280;72967;43.674;6.976;2023-10-08T13:03:48;97507.66;;;26.02;41.77
83095;BME280;72967;43.674;6.976;2023-10-08T13:06:16;97519.72;;;26.02;42.24
83095;BME280;72967;43.674;6.976;2023-10-08T13:08:51;97506.31;;;26.10;41.73
83095;BME280;72967;43.674;6.976;2023-10-08T13:11:21;97509.16;;;26.06;42.18
83095;BME280;72967;43.674;6.976;2023-10-08T13:13:52;97503.69;;;25.99;42.11
83095;BME280;72967;43.674;6.976;2023-10-08T13:16:19;97502.38;;;26.04;41.81
83095;BME280;72967;43.674;6.976;2023-10-08T13:18:47;97510.34;;;26.09;42.16
83095;BME280;72967;43.674;6.976;2023-10-08T13:21:12;97511.16;;;26.09;41.97